createdAt,value
2018-12-30T00:00:48.070Z,9.04
2018-12-30T00:01:48.037Z,8.97
2018-12-30T00:02:48.004Z,9.03
2018-12-30T00:03:47.965Z,8.94
2018-12-30T00:04:47.933Z,9.00
2018-12-30T00:05:47.903Z,8.95
2018-12-30T00:06:47.864Z,8.95
2018-12-30T00:07:47.824Z,9.00
2018-12-30T00:08:47.793Z,9.02
2018-12-30T00:09:47.754Z,9.00
2018-12-30T00:10:47.725Z,8.99
2018-12-30T00:11:47.693Z,9.02
2018-12-30T00:12:47.674Z,9.00
2018-12-30T00:13:47.613Z,9.03
2018-12-30T00:14:47.583Z,8.99
2018-12-30T00:15:47.540Z,8.97
2018-12-30T00:16:47.519Z,9.02
2018-12-30T00:17:47.464Z,9.03
2018-12-30T00:18:47.438Z,8.99
2018-12-30T00:19:47.401Z,8.99
2018-12-30T00:20:47.379Z,9.02
2018-12-30T00:21:47.330Z,9.06
2018-12-30T00:22:47.293Z,9.02
2018-12-30T00:23:47.254Z,9.00
2018-12-30T00:24:47.234Z,9.02
2018-12-30T00:25:47.193Z,9.08
2018-12-30T00:26:47.153Z,9.00
2018-12-30T00:27:47.124Z,9.06
2018-12-30T00:28:47.089Z,9.10
2018-12-30T00:29:47.048Z,9.06
2018-12-30T00:30:47.039Z,9.00
2018-12-30T00:31:46.973Z,9.00
2018-12-30T00:32:46.945Z,9.03
2018-12-30T00:33:46.910Z,9.00
2018-12-30T00:34:46.870Z,9.04
2018-12-30T00:35:46.839Z,9.10
2018-12-30T00:36:46.805Z,9.02
2018-12-30T00:37:46.771Z,9.11
2018-12-30T00:38:46.783Z,9.13
2018-12-30T00:39:46.706Z,9.06
2018-12-30T00:40:46.675Z,9.06
2018-12-30T00:41:46.669Z,9.14
2018-12-30T00:42:46.600Z,9.10
2018-12-30T00:43:46.554Z,9.08
2018-12-30T00:44:46.519Z,9.08
2018-12-30T00:45:46.505Z,9.08
2018-12-30T00:46:46.454Z,9.04
2018-12-30T00:47:46.419Z,9.11
2018-12-30T00:48:46.381Z,9.10
2018-12-30T00:49:46.348Z,9.00
2018-12-30T00:50:46.309Z,9.16
2018-12-30T00:51:46.277Z,9.11
2018-12-30T00:52:46.240Z,9.06
2018-12-30T00:53:46.205Z,9.08
2018-12-30T00:54:46.165Z,8.99
2018-12-30T00:55:46.126Z,9.00
2018-12-30T00:56:46.097Z,8.99
2018-12-30T00:57:46.056Z,9.02
2018-12-30T00:58:46.028Z,8.91
2018-12-30T00:59:45.996Z,8.97
2018-12-30T01:00:45.948Z,8.99
2018-12-30T01:01:45.917Z,9.00
2018-12-30T01:02:45.884Z,8.95
2018-12-30T01:03:47.114Z,9.04
2018-12-30T01:04:45.822Z,9.03
2018-12-30T01:05:45.783Z,8.92
2018-12-30T01:06:45.751Z,9.00
2018-12-30T01:07:45.709Z,9.02
2018-12-30T01:08:45.680Z,8.97
2018-12-30T01:09:45.640Z,8.99
2018-12-30T01:10:45.593Z,8.99
2018-12-30T01:11:45.556Z,8.97
2018-12-30T01:12:45.528Z,8.92
2018-12-30T01:13:45.497Z,8.91
2018-12-30T01:14:45.457Z,8.95
2018-12-30T01:15:45.427Z,8.91
2018-12-30T01:16:45.391Z,8.92
2018-12-30T01:17:45.360Z,8.97
2018-12-30T01:18:45.320Z,8.94
2018-12-30T01:19:45.295Z,8.85
2018-12-30T01:20:45.259Z,8.94
2018-12-30T01:21:45.211Z,8.94
2018-12-30T01:22:45.176Z,9.02
2018-12-30T01:23:45.137Z,8.97
2018-12-30T01:24:45.106Z,8.88
2018-12-30T01:25:45.075Z,8.87
2018-12-30T01:26:45.038Z,8.87
2018-12-30T01:27:45.007Z,8.97
2018-12-30T01:28:44.966Z,9.00
2018-12-30T01:29:44.931Z,8.87
2018-12-30T01:30:44.891Z,8.91
2018-12-30T01:31:44.862Z,8.95
2018-12-30T01:32:44.828Z,8.95
2018-12-30T01:33:44.788Z,8.92
2018-12-30T01:34:44.748Z,8.92
2018-12-30T01:35:44.716Z,8.91
2018-12-30T01:36:44.684Z,8.94
2018-12-30T01:37:44.646Z,8.81
2018-12-30T01:38:44.612Z,8.89
2018-12-30T01:39:44.577Z,8.82
2018-12-30T01:40:44.538Z,8.81
2018-12-30T01:41:44.503Z,8.84
2018-12-30T01:42:44.474Z,8.92
2018-12-30T01:43:44.429Z,8.84
2018-12-30T01:44:44.407Z,8.78
2018-12-30T01:45:44.361Z,8.88
2018-12-30T01:46:44.327Z,8.79
2018-12-30T01:47:44.289Z,8.82
2018-12-30T01:48:44.264Z,8.82
2018-12-30T01:49:44.217Z,8.84
2018-12-30T01:50:44.183Z,8.81
2018-12-30T01:51:44.156Z,8.81
2018-12-30T01:52:44.119Z,8.82
2018-12-30T01:53:44.088Z,8.87
2018-12-30T01:54:44.048Z,8.81
2018-12-30T01:55:44.008Z,8.79
2018-12-30T01:56:43.981Z,8.87
2018-12-30T01:57:43.942Z,8.85
2018-12-30T01:58:43.917Z,8.84
2018-12-30T01:59:43.872Z,8.81
2018-12-30T02:00:43.830Z,8.84
2018-12-30T02:01:43.794Z,8.81
2018-12-30T02:02:43.763Z,8.85
2018-12-30T02:03:43.727Z,8.88
2018-12-30T02:04:43.687Z,8.82
2018-12-30T02:05:43.688Z,8.84
2018-12-30T02:06:43.609Z,8.76
2018-12-30T02:07:43.582Z,8.78
2018-12-30T02:08:43.549Z,8.78
2018-12-30T02:09:43.505Z,8.73
2018-12-30T02:10:43.476Z,8.88
2018-12-30T02:11:43.440Z,8.78
2018-12-30T02:12:43.407Z,8.84
2018-12-30T02:13:43.382Z,8.70
2018-12-30T02:14:43.335Z,8.73
2018-12-30T02:15:43.300Z,8.74
2018-12-30T02:16:43.269Z,8.74
2018-12-30T02:17:43.225Z,8.87
2018-12-30T02:18:43.200Z,8.85
2018-12-30T02:19:43.163Z,8.74
2018-12-30T02:20:43.119Z,8.79
2018-12-30T02:21:43.094Z,8.74
2018-12-30T02:22:43.059Z,8.73
2018-12-30T02:23:43.023Z,8.74
2018-12-30T02:24:42.987Z,8.78
2018-12-30T02:25:42.953Z,8.74
2018-12-30T02:26:42.918Z,8.74
2018-12-30T02:27:42.874Z,8.78
2018-12-30T02:28:42.848Z,8.70
2018-12-30T02:29:42.808Z,8.76
2018-12-30T02:30:42.766Z,8.79
2018-12-30T02:31:42.733Z,8.78
2018-12-30T02:32:42.706Z,8.69
2018-12-30T02:33:42.664Z,8.66
2018-12-30T02:34:42.638Z,8.81
2018-12-30T02:35:42.590Z,8.79
2018-12-30T02:36:42.555Z,8.82
2018-12-30T02:37:42.526Z,8.70
2018-12-30T02:38:42.488Z,8.70
2018-12-30T02:39:42.446Z,8.67
2018-12-30T02:40:42.405Z,8.71
2018-12-30T02:41:42.379Z,8.79
2018-12-30T02:42:42.346Z,8.73
2018-12-30T02:43:42.304Z,8.71
2018-12-30T02:44:42.271Z,8.69
2018-12-30T02:45:42.235Z,8.66
2018-12-30T02:46:42.196Z,8.64
2018-12-30T02:47:42.161Z,8.61
2018-12-30T02:48:42.136Z,8.64
2018-12-30T02:49:42.089Z,8.64
2018-12-30T02:50:42.071Z,8.66
2018-12-30T02:51:50.064Z,8.67
2018-12-30T02:52:41.995Z,8.66
2018-12-30T02:53:41.960Z,8.74
2018-12-30T02:54:41.921Z,8.73
2018-12-30T02:55:41.882Z,8.70
2018-12-30T02:56:41.847Z,8.63
2018-12-30T02:57:41.820Z,8.76
2018-12-30T02:58:41.780Z,8.66
2018-12-30T02:59:41.740Z,8.70
2018-12-30T03:00:41.706Z,8.69
2018-12-30T03:01:41.681Z,8.71
2018-12-30T03:02:41.631Z,8.67
2018-12-30T03:03:41.602Z,8.58
2018-12-30T03:04:41.571Z,8.53
2018-12-30T03:05:41.546Z,8.64
2018-12-30T03:06:41.497Z,8.71
2018-12-30T03:07:41.464Z,8.73
2018-12-30T03:08:41.423Z,8.67
2018-12-30T03:09:41.395Z,8.56
2018-12-30T03:10:41.347Z,8.53
2018-12-30T03:11:41.317Z,8.61
2018-12-30T03:12:41.272Z,8.64
2018-12-30T03:13:41.248Z,8.64
2018-12-30T03:14:41.230Z,8.69
2018-12-30T03:15:41.175Z,8.63
2018-12-30T03:16:41.141Z,8.58
2018-12-30T03:17:41.098Z,8.58
2018-12-30T03:18:41.067Z,8.67
2018-12-30T03:19:41.043Z,8.58
2018-12-30T03:20:40.991Z,8.58
2018-12-30T03:21:40.962Z,8.55
2018-12-30T03:22:40.932Z,8.61
2018-12-30T03:23:40.893Z,8.56
2018-12-30T03:24:40.867Z,8.60
2018-12-30T03:25:40.829Z,8.58
2018-12-30T03:26:40.831Z,8.55
2018-12-30T03:27:40.748Z,8.64
2018-12-30T03:28:40.716Z,8.53
2018-12-30T03:29:40.686Z,8.66
2018-12-30T03:30:40.640Z,8.63
2018-12-30T03:31:40.607Z,8.61
2018-12-30T03:32:40.578Z,8.70
2018-12-30T03:33:40.548Z,8.52
2018-12-30T03:34:40.514Z,8.71
2018-12-30T03:35:40.469Z,8.63
2018-12-30T03:36:40.422Z,8.69
2018-12-30T03:37:40.396Z,8.60
2018-12-30T03:38:40.363Z,8.63
2018-12-30T03:39:40.319Z,8.63
2018-12-30T03:40:40.281Z,8.61
2018-12-30T03:41:40.254Z,8.58
2018-12-30T03:42:40.223Z,8.58
2018-12-30T03:43:40.183Z,8.67
2018-12-30T03:44:40.151Z,8.64
2018-12-30T03:45:40.104Z,8.66
2018-12-30T03:46:40.073Z,8.73
2018-12-30T03:47:40.043Z,8.70
2018-12-30T03:48:39.997Z,8.70
2018-12-30T03:49:39.976Z,8.66
2018-12-30T03:50:39.930Z,8.71
2018-12-30T03:51:39.904Z,8.73
2018-12-30T03:52:39.868Z,8.70
2018-12-30T03:53:39.825Z,8.64
2018-12-30T03:54:39.792Z,8.56
2018-12-30T03:55:39.748Z,8.63
2018-12-30T03:56:39.724Z,8.58
2018-12-30T03:57:39.699Z,8.63
2018-12-30T03:58:39.657Z,8.74
2018-12-30T03:59:39.613Z,8.66
2018-12-30T04:00:39.585Z,8.61
2018-12-30T04:01:39.556Z,8.52
2018-12-30T04:02:41.639Z,8.66
2018-12-30T04:03:39.465Z,8.67
2018-12-30T04:04:39.433Z,8.70
2018-12-30T04:05:39.407Z,8.58
2018-12-30T04:06:39.390Z,8.67
2018-12-30T04:07:39.335Z,8.69
2018-12-30T04:08:39.306Z,8.64
2018-12-30T04:09:39.261Z,8.55
2018-12-30T04:10:39.239Z,8.64
2018-12-30T04:11:39.195Z,8.61
2018-12-30T04:12:39.153Z,8.58
2018-12-30T04:13:39.115Z,8.55
2018-12-30T04:14:39.114Z,8.67
2018-12-30T04:15:39.044Z,8.66
2018-12-30T04:16:39.010Z,8.53
2018-12-30T04:17:39.024Z,8.70
2018-12-30T04:18:38.970Z,8.67
2018-12-30T04:19:38.909Z,8.66
2018-12-30T04:20:38.872Z,8.66
2018-12-30T04:21:38.849Z,8.58
2018-12-30T04:22:38.795Z,8.60
2018-12-30T04:23:38.762Z,8.58
2018-12-30T04:24:38.736Z,8.67
2018-12-30T04:25:38.687Z,8.61
2018-12-30T04:26:38.662Z,8.66
2018-12-30T04:27:38.621Z,8.63
2018-12-30T04:28:38.587Z,8.66
2018-12-30T04:29:38.552Z,8.61
2018-12-30T04:30:38.539Z,8.61
2018-12-30T04:31:38.479Z,8.61
2018-12-30T04:32:38.442Z,8.53
2018-12-30T04:33:38.411Z,8.60
2018-12-30T04:34:38.377Z,8.56
2018-12-30T04:35:38.340Z,8.56
2018-12-30T04:36:38.308Z,8.56
2018-12-30T04:37:38.265Z,8.56
2018-12-30T04:38:38.231Z,8.66
2018-12-30T04:39:38.203Z,8.60
2018-12-30T04:40:38.167Z,8.60
2018-12-30T04:41:38.123Z,8.49
2018-12-30T04:42:38.092Z,8.45
2018-12-30T04:43:38.072Z,8.52
2018-12-30T04:44:38.057Z,8.51
2018-12-30T04:45:37.988Z,8.53
2018-12-30T04:46:37.952Z,8.48
2018-12-30T04:47:37.921Z,8.42
2018-12-30T04:48:37.878Z,8.46
2018-12-30T04:49:37.837Z,8.36
2018-12-30T04:50:39.829Z,8.45
2018-12-30T04:51:37.775Z,8.49
2018-12-30T04:52:37.736Z,8.51
2018-12-30T04:53:37.701Z,8.44
2018-12-30T04:54:37.660Z,8.41
2018-12-30T04:55:37.636Z,8.41
2018-12-30T04:56:37.592Z,8.42
2018-12-30T04:57:37.556Z,8.42
2018-12-30T04:58:37.521Z,8.38
2018-12-30T04:59:37.494Z,8.44
2018-12-30T05:00:37.453Z,8.45
2018-12-30T05:01:37.408Z,8.41
2018-12-30T05:02:37.373Z,8.30
2018-12-30T05:03:37.341Z,8.44
2018-12-30T05:04:37.317Z,8.38
2018-12-30T05:05:37.281Z,8.28
2018-12-30T05:06:37.233Z,8.42
2018-12-30T05:07:37.201Z,8.37
2018-12-30T05:08:37.167Z,8.46
2018-12-30T05:09:37.136Z,8.42
2018-12-30T05:10:37.101Z,8.45
2018-12-30T05:11:37.051Z,8.42
2018-12-30T05:12:37.018Z,8.37
2018-12-30T05:13:36.988Z,8.38
2018-12-30T05:14:36.954Z,8.38
2018-12-30T05:15:36.922Z,8.38
2018-12-30T05:16:36.873Z,8.42
2018-12-30T05:17:36.850Z,8.36
2018-12-30T05:18:36.814Z,8.33
2018-12-30T05:19:36.773Z,8.42
2018-12-30T05:20:36.739Z,8.36
2018-12-30T05:21:36.707Z,8.31
2018-12-30T05:22:36.662Z,8.49
2018-12-30T05:23:36.637Z,8.45
2018-12-30T05:24:36.593Z,8.34
2018-12-30T05:25:36.555Z,8.38
2018-12-30T05:26:36.528Z,8.37
2018-12-30T05:27:36.502Z,8.37
2018-12-30T05:28:36.480Z,8.37
2018-12-30T05:29:36.415Z,8.36
2018-12-30T05:30:36.378Z,8.36
2018-12-30T05:31:36.339Z,8.38
2018-12-30T05:32:36.313Z,8.33
2018-12-30T05:33:36.294Z,8.36
2018-12-30T05:34:36.239Z,8.38
2018-12-30T05:35:36.220Z,8.41
2018-12-30T05:36:36.174Z,8.28
2018-12-30T05:37:36.125Z,8.26
2018-12-30T05:38:36.105Z,8.36
2018-12-30T05:39:36.066Z,8.37
2018-12-30T05:40:36.022Z,8.37
2018-12-30T05:41:36.001Z,8.27
2018-12-30T05:42:35.951Z,8.37
2018-12-30T05:43:35.909Z,8.41
2018-12-30T05:44:35.878Z,8.30
2018-12-30T05:45:35.845Z,8.33
2018-12-30T05:46:35.809Z,8.34
2018-12-30T05:47:35.772Z,8.38
2018-12-30T05:48:35.735Z,8.27
2018-12-30T05:49:35.695Z,8.38
2018-12-30T05:50:35.665Z,8.34
2018-12-30T05:51:35.629Z,8.37
2018-12-30T05:52:41.721Z,8.38
2018-12-30T05:53:35.559Z,8.26
2018-12-30T05:54:35.516Z,8.31
2018-12-30T05:55:35.481Z,8.42
2018-12-30T05:56:35.451Z,8.30
2018-12-30T05:57:35.414Z,8.27
2018-12-30T05:58:35.379Z,8.19
2018-12-30T05:59:35.344Z,8.26
2018-12-30T06:00:35.304Z,8.36
2018-12-30T06:01:35.279Z,8.23
2018-12-30T06:02:35.239Z,8.24
2018-12-30T06:03:35.197Z,8.20
2018-12-30T06:04:35.158Z,8.26
2018-12-30T06:05:35.141Z,8.24
2018-12-30T06:06:35.090Z,8.23
2018-12-30T06:07:35.047Z,8.23
2018-12-30T06:08:35.026Z,8.33
2018-12-30T06:09:34.989Z,8.18
2018-12-30T06:10:34.954Z,8.19
2018-12-30T06:11:34.919Z,8.27
2018-12-30T06:12:34.881Z,8.27
2018-12-30T06:13:34.844Z,8.30
2018-12-30T06:14:34.814Z,8.30
2018-12-30T06:15:34.771Z,8.23
2018-12-30T06:16:34.735Z,8.30
2018-12-30T06:17:34.700Z,8.26
2018-12-30T06:18:34.670Z,8.31
2018-12-30T06:19:34.626Z,8.31
2018-12-30T06:20:34.591Z,8.37
2018-12-30T06:21:34.553Z,8.23
2018-12-30T06:22:34.524Z,8.23
2018-12-30T06:23:34.497Z,8.26
2018-12-30T06:24:34.454Z,8.33
2018-12-30T06:25:34.426Z,8.36
2018-12-30T06:26:34.382Z,8.34
2018-12-30T06:27:34.337Z,8.41
2018-12-30T06:28:34.317Z,8.37
2018-12-30T06:29:34.279Z,8.36
2018-12-30T06:30:34.226Z,8.38
2018-12-30T06:31:34.195Z,8.36
2018-12-30T06:32:34.169Z,8.37
2018-12-30T06:33:34.121Z,8.45
2018-12-30T06:34:34.092Z,8.38
2018-12-30T06:35:34.055Z,8.41
2018-12-30T06:36:34.020Z,8.34
2018-12-30T06:37:33.992Z,8.34
2018-12-30T06:38:33.947Z,8.38
2018-12-30T06:39:33.905Z,8.36
2018-12-30T06:40:33.886Z,8.44
2018-12-30T06:41:33.846Z,8.42
2018-12-30T06:42:33.823Z,8.41
2018-12-30T06:43:33.782Z,8.42
2018-12-30T06:44:33.746Z,8.46
2018-12-30T06:45:33.701Z,8.51
2018-12-30T06:46:33.666Z,8.37
2018-12-30T06:47:33.631Z,8.34
2018-12-30T06:48:33.595Z,8.42
2018-12-30T06:49:33.556Z,8.38
2018-12-30T06:50:33.522Z,8.44
2018-12-30T06:51:33.498Z,8.46
2018-12-30T06:52:33.461Z,8.45
2018-12-30T06:53:33.415Z,8.42
2018-12-30T06:54:33.389Z,8.38
2018-12-30T06:55:33.338Z,8.42
2018-12-30T06:56:33.311Z,8.46
2018-12-30T06:57:33.268Z,8.49
2018-12-30T06:58:33.238Z,8.44
2018-12-30T06:59:33.208Z,8.45
2018-12-30T07:00:33.176Z,8.44
2018-12-30T07:01:33.129Z,8.44
2018-12-30T07:02:33.096Z,8.38
2018-12-30T07:03:33.071Z,8.42
2018-12-30T07:04:33.036Z,8.45
2018-12-30T07:05:32.996Z,8.44
2018-12-30T07:06:32.947Z,8.42
2018-12-30T07:07:32.921Z,8.38
2018-12-30T07:08:32.877Z,8.42
2018-12-30T07:09:32.843Z,8.45
2018-12-30T07:10:32.814Z,8.52
2018-12-30T07:11:32.789Z,8.45
2018-12-30T07:12:32.739Z,8.45
2018-12-30T07:13:32.699Z,8.42
2018-12-30T07:14:32.703Z,8.41
2018-12-30T07:15:32.686Z,8.37
2018-12-30T07:16:32.606Z,8.38
2018-12-30T07:17:32.562Z,8.48
2018-12-30T07:18:32.524Z,8.51
2018-12-30T07:19:32.498Z,8.53
2018-12-30T07:20:32.452Z,8.45
2018-12-30T07:21:32.421Z,8.45
2018-12-30T07:22:32.384Z,8.46
2018-12-30T07:23:32.347Z,8.46
2018-12-30T07:24:32.308Z,8.52
2018-12-30T07:25:32.279Z,8.53
2018-12-30T07:26:32.246Z,8.53
2018-12-30T07:27:32.201Z,8.45
2018-12-30T07:28:32.167Z,8.51
2018-12-30T07:29:32.133Z,8.52
2018-12-30T07:30:32.095Z,8.51
2018-12-30T07:31:32.065Z,8.48
2018-12-30T07:32:32.029Z,8.61
2018-12-30T07:33:32.003Z,8.46
2018-12-30T07:34:31.958Z,8.44
2018-12-30T07:35:31.925Z,8.45
2018-12-30T07:36:31.891Z,8.52
2018-12-30T07:37:31.858Z,8.49
2018-12-30T07:38:31.814Z,8.44
2018-12-30T07:39:31.779Z,8.46
2018-12-30T07:40:31.744Z,8.44
2018-12-30T07:41:31.704Z,8.42
2018-12-30T07:42:31.680Z,8.48
2018-12-30T07:43:31.640Z,8.44
2018-12-30T07:44:31.620Z,8.46
2018-12-30T07:45:31.581Z,8.46
2018-12-30T07:46:31.563Z,8.51
2018-12-30T07:47:31.494Z,8.37
2018-12-30T07:48:31.465Z,8.42
2018-12-30T07:49:31.425Z,8.56
2018-12-30T07:50:31.398Z,8.46
2018-12-30T07:51:31.355Z,8.53
2018-12-30T07:52:31.320Z,8.41
2018-12-30T07:53:31.285Z,8.41
2018-12-30T07:54:31.244Z,8.44
2018-12-30T07:55:31.221Z,8.48
2018-12-30T07:56:31.176Z,8.42
2018-12-30T07:57:31.147Z,8.45
2018-12-30T07:58:31.106Z,8.42
2018-12-30T07:59:31.066Z,8.42
2018-12-30T08:00:31.044Z,8.49
2018-12-30T08:01:31.000Z,8.45
2018-12-30T08:02:30.955Z,8.41
2018-12-30T08:03:30.935Z,8.44
2018-12-30T08:04:30.886Z,8.45
2018-12-30T08:05:30.862Z,8.55
2018-12-30T08:06:30.819Z,8.51
2018-12-30T08:07:30.787Z,8.48
2018-12-30T08:08:30.750Z,8.45
2018-12-30T08:09:30.720Z,8.45
2018-12-30T08:10:30.671Z,8.46
2018-12-30T08:11:30.664Z,8.44
2018-12-30T08:12:30.600Z,8.51
2018-12-30T08:13:30.570Z,8.52
2018-12-30T08:14:30.547Z,8.51
2018-12-30T08:15:30.501Z,8.51
2018-12-30T08:16:30.471Z,8.56
2018-12-30T08:17:30.422Z,8.53
2018-12-30T08:18:30.398Z,8.56
2018-12-30T08:19:30.357Z,8.64
2018-12-30T08:20:30.351Z,8.64
2018-12-30T08:21:30.286Z,8.66
2018-12-30T08:22:30.258Z,8.69
2018-12-30T08:23:30.225Z,8.64
2018-12-30T08:24:30.181Z,8.66
2018-12-30T08:25:30.147Z,8.67
2018-12-30T08:26:30.117Z,8.73
2018-12-30T08:27:30.082Z,8.56
2018-12-30T08:28:30.057Z,8.58
2018-12-30T08:29:30.016Z,8.67
2018-12-30T08:30:29.967Z,8.74
2018-12-30T08:31:29.962Z,8.67
2018-12-30T08:32:29.898Z,8.67
2018-12-30T08:33:29.867Z,8.69
2018-12-30T08:34:29.828Z,8.71
2018-12-30T08:35:29.796Z,8.66
2018-12-30T08:36:29.759Z,8.76
2018-12-30T08:37:29.719Z,8.53
2018-12-30T08:38:29.707Z,8.58
2018-12-30T08:39:29.659Z,8.53
2018-12-30T08:40:29.614Z,8.60
2018-12-30T08:41:29.584Z,8.69
2018-12-30T08:42:29.541Z,8.67
2018-12-30T08:43:29.528Z,8.58
2018-12-30T08:44:29.483Z,8.69
2018-12-30T08:45:29.442Z,8.53
2018-12-30T08:46:29.414Z,8.67
2018-12-30T08:47:29.368Z,8.60
2018-12-30T08:48:29.338Z,8.67
2018-12-30T08:49:29.300Z,8.69
2018-12-30T08:50:29.259Z,8.66
2018-12-30T08:51:29.227Z,8.66
2018-12-30T08:52:29.197Z,8.79
2018-12-30T08:53:29.608Z,8.73
2018-12-30T08:54:29.135Z,8.53
2018-12-30T08:55:29.084Z,8.58
2018-12-30T08:56:29.062Z,8.60
2018-12-30T08:57:29.018Z,8.58
2018-12-30T08:58:28.984Z,8.66
2018-12-30T08:59:28.950Z,8.69
2018-12-30T09:00:28.905Z,8.64
2018-12-30T09:01:28.884Z,8.64
2018-12-30T09:02:28.844Z,8.67
2018-12-30T09:03:28.816Z,8.66
2018-12-30T09:04:28.764Z,8.73
2018-12-30T09:05:28.740Z,8.70
2018-12-30T09:06:28.713Z,8.71
2018-12-30T09:07:28.668Z,8.70
2018-12-30T09:08:28.635Z,8.70
2018-12-30T09:09:28.608Z,8.61
2018-12-30T09:10:28.562Z,8.66
2018-12-30T09:11:28.530Z,8.67
2018-12-30T09:12:28.490Z,8.69
2018-12-30T09:13:28.456Z,8.63
2018-12-30T09:14:28.418Z,8.63
2018-12-30T09:15:28.384Z,8.73
2018-12-30T09:16:28.349Z,8.66
2018-12-30T09:17:28.314Z,8.67
2018-12-30T09:18:28.279Z,8.81
2018-12-30T09:19:28.239Z,8.76
2018-12-30T09:20:28.209Z,8.67
2018-12-30T09:21:28.176Z,8.67
2018-12-30T09:22:28.140Z,8.74
2018-12-30T09:23:28.101Z,8.73
2018-12-30T09:24:28.060Z,8.74
2018-12-30T09:25:28.027Z,8.73
2018-12-30T09:26:27.991Z,8.74
2018-12-30T09:27:27.957Z,8.79
2018-12-30T09:28:27.934Z,8.81
2018-12-30T09:29:27.897Z,8.81
2018-12-30T09:30:27.858Z,8.89
2018-12-30T09:31:27.820Z,8.97
2018-12-30T09:32:27.779Z,9.00
2018-12-30T09:33:27.816Z,8.81
2018-12-30T09:34:27.727Z,8.85
2018-12-30T09:35:27.681Z,8.87
2018-12-30T09:36:27.657Z,8.85
2018-12-30T09:37:27.616Z,8.92
2018-12-30T09:38:27.575Z,8.79
2018-12-30T09:39:27.540Z,8.85
2018-12-30T09:40:27.506Z,8.71
2018-12-30T09:41:27.473Z,8.82
2018-12-30T09:42:27.432Z,8.74
2018-12-30T09:43:27.401Z,8.70
2018-12-30T09:44:27.366Z,8.89
2018-12-30T09:45:27.338Z,8.89
2018-12-30T09:46:27.290Z,8.81
2018-12-30T09:47:27.261Z,8.74
2018-12-30T09:48:33.748Z,8.67
2018-12-30T09:49:27.187Z,8.64
2018-12-30T09:50:27.150Z,8.67
2018-12-30T09:51:27.127Z,8.81
2018-12-30T09:52:27.088Z,8.85
2018-12-30T09:53:27.046Z,8.76
2018-12-30T09:54:27.006Z,8.66
2018-12-30T09:55:26.991Z,8.74
2018-12-30T09:56:26.950Z,8.74
2018-12-30T09:57:26.913Z,8.89
2018-12-30T09:58:26.869Z,8.89
2018-12-30T09:59:26.844Z,8.79
2018-12-30T10:00:26.806Z,8.73
2018-12-30T10:01:26.766Z,8.92
2018-12-30T10:02:26.729Z,8.89
2018-12-30T10:03:26.698Z,8.82
2018-12-30T10:04:26.657Z,8.84
2018-12-30T10:05:26.633Z,8.94
2018-12-30T10:06:26.598Z,8.81
2018-12-30T10:07:26.562Z,8.78
2018-12-30T10:08:26.518Z,8.66
2018-12-30T10:09:26.485Z,8.71
2018-12-30T10:10:26.454Z,8.73
2018-12-30T10:11:26.418Z,8.70
2018-12-30T10:12:26.397Z,8.79
2018-12-30T10:13:26.357Z,8.73
2018-12-30T10:14:26.309Z,8.76
2018-12-30T10:15:26.274Z,8.81
2018-12-30T10:16:26.253Z,8.76
2018-12-30T10:17:26.209Z,8.73
2018-12-30T10:18:26.169Z,8.82
2018-12-30T10:19:26.132Z,8.76
2018-12-30T10:20:26.108Z,8.87
2018-12-30T10:21:26.069Z,8.74
2018-12-30T10:22:26.024Z,8.79
2018-12-30T10:23:26.004Z,8.74
2018-12-30T10:24:25.957Z,8.85
2018-12-30T10:25:25.923Z,8.84
2018-12-30T10:26:25.884Z,8.76
2018-12-30T10:27:25.851Z,8.79
2018-12-30T10:28:25.822Z,8.87
2018-12-30T10:29:25.789Z,8.88
2018-12-30T10:30:26.662Z,8.84
2018-12-30T10:31:25.730Z,8.87
2018-12-30T10:32:25.695Z,8.81
2018-12-30T10:33:25.633Z,8.87
2018-12-30T10:34:25.621Z,8.87
2018-12-30T10:35:25.579Z,8.88
2018-12-30T10:36:25.531Z,8.97
2018-12-30T10:37:25.504Z,8.97
2018-12-30T10:38:25.476Z,8.92
2018-12-30T10:39:25.429Z,8.89
2018-12-30T10:40:25.393Z,8.94
2018-12-30T10:41:25.363Z,8.92
2018-12-30T10:42:25.348Z,8.91
2018-12-30T10:43:25.304Z,8.89
2018-12-30T10:44:25.255Z,8.87
2018-12-30T10:45:25.225Z,8.76
2018-12-30T10:46:25.178Z,8.74
2018-12-30T10:47:25.148Z,8.67
2018-12-30T10:48:25.124Z,8.78
2018-12-30T10:49:25.083Z,8.74
2018-12-30T10:50:25.047Z,8.64
2018-12-30T10:51:25.028Z,8.74
2018-12-30T10:52:24.973Z,8.78
2018-12-30T10:53:24.950Z,8.73
2018-12-30T10:54:24.906Z,8.73
2018-12-30T10:55:24.879Z,8.71
2018-12-30T10:56:24.836Z,8.69
2018-12-30T10:57:24.810Z,8.81
2018-12-30T10:58:24.780Z,8.71
2018-12-30T10:59:24.732Z,8.81
2018-12-30T11:00:24.702Z,8.89
2018-12-30T11:01:24.664Z,8.92
2018-12-30T11:02:24.630Z,8.89
2018-12-30T11:03:24.589Z,8.92
2018-12-30T11:04:24.556Z,8.91
2018-12-30T11:05:24.525Z,9.00
2018-12-30T11:06:24.479Z,8.94
2018-12-30T11:07:24.450Z,8.97
2018-12-30T11:08:24.416Z,8.97
2018-12-30T11:09:24.391Z,8.95
2018-12-30T11:10:24.346Z,8.97
2018-12-30T11:11:24.310Z,8.88
2018-12-30T11:12:24.281Z,8.92
2018-12-30T11:13:24.247Z,8.89
2018-12-30T11:14:24.207Z,8.91
2018-12-30T11:15:24.171Z,8.92
2018-12-30T11:16:24.120Z,8.97
2018-12-30T11:17:24.092Z,9.04
2018-12-30T11:18:24.061Z,9.08
2018-12-30T11:19:24.030Z,8.95
2018-12-30T11:20:23.999Z,9.02
2018-12-30T11:21:23.955Z,9.10
2018-12-30T11:22:23.951Z,9.06
2018-12-30T11:23:23.963Z,8.95
2018-12-30T11:24:23.851Z,9.10
2018-12-30T11:25:23.816Z,9.11
2018-12-30T11:26:23.786Z,9.14
2018-12-30T11:27:23.748Z,9.13
2018-12-30T11:28:23.706Z,9.18
2018-12-30T11:29:23.681Z,9.29
2018-12-30T11:30:23.658Z,9.32
2018-12-30T11:31:23.605Z,9.31
2018-12-30T11:32:23.572Z,9.40
2018-12-30T11:33:23.546Z,9.40
2018-12-30T11:34:23.503Z,9.37
2018-12-30T11:35:23.469Z,9.31
2018-12-30T11:36:23.436Z,9.19
2018-12-30T11:37:23.402Z,9.13
2018-12-30T11:38:23.361Z,9.34
2018-12-30T11:39:23.322Z,9.31
2018-12-30T11:40:23.366Z,9.31
2018-12-30T11:41:23.261Z,9.26
2018-12-30T11:42:23.237Z,9.26
2018-12-30T11:43:23.191Z,9.14
2018-12-30T11:44:23.161Z,9.19
2018-12-30T11:45:23.131Z,9.23
2018-12-30T11:46:23.100Z,9.11
2018-12-30T11:47:23.061Z,9.14
2018-12-30T11:48:23.013Z,9.04
2018-12-30T11:49:22.997Z,9.10
2018-12-30T11:50:22.943Z,9.16
2018-12-30T11:51:22.938Z,9.08
2018-12-30T11:52:22.873Z,9.10
2018-12-30T11:53:22.863Z,9.02
2018-12-30T11:54:22.813Z,9.06
2018-12-30T11:55:22.773Z,9.03
2018-12-30T11:56:22.747Z,9.08
2018-12-30T11:57:22.707Z,9.11
2018-12-30T11:58:22.663Z,8.99
2018-12-30T11:59:22.640Z,9.00
2018-12-30T12:00:22.596Z,9.03
2018-12-30T12:01:22.556Z,9.11
2018-12-30T12:02:24.152Z,9.03
2018-12-30T12:03:22.486Z,9.13
2018-12-30T12:04:22.459Z,9.08
2018-12-30T12:05:22.427Z,9.18
2018-12-30T12:06:22.387Z,9.06
2018-12-30T12:07:22.346Z,9.08
2018-12-30T12:08:22.311Z,9.13
2018-12-30T12:09:22.284Z,9.25
2018-12-30T12:10:22.249Z,9.23
2018-12-30T12:11:22.217Z,9.22
2018-12-30T12:12:22.178Z,9.26
2018-12-30T12:13:22.153Z,9.11
2018-12-30T12:14:22.103Z,9.25
2018-12-30T12:15:22.088Z,9.16
2018-12-30T12:16:22.044Z,9.19
2018-12-30T12:17:21.998Z,9.25
2018-12-30T12:18:21.960Z,9.25
2018-12-30T12:19:21.939Z,9.29
2018-12-30T12:20:21.905Z,9.32
2018-12-30T12:21:21.865Z,9.13
2018-12-30T12:22:21.833Z,9.19
2018-12-30T12:23:21.814Z,9.13
2018-12-30T12:24:24.463Z,9.16
2018-12-30T12:25:21.731Z,9.16
2018-12-30T12:26:21.704Z,9.22
2018-12-30T12:27:21.649Z,9.21
2018-12-30T12:28:21.616Z,9.25
2018-12-30T12:29:21.594Z,9.19
2018-12-30T12:30:21.553Z,9.25
2018-12-30T12:31:21.525Z,9.22
2018-12-30T12:32:21.479Z,9.13
2018-12-30T12:33:21.439Z,9.13
2018-12-30T12:34:21.403Z,9.34
2018-12-30T12:35:21.384Z,9.34
2018-12-30T12:36:21.343Z,9.25
2018-12-30T12:37:24.199Z,9.28
2018-12-30T12:38:21.278Z,9.32
2018-12-30T12:39:21.229Z,9.36
2018-12-30T12:40:21.210Z,9.31
2018-12-30T12:41:21.179Z,9.29
2018-12-30T12:42:21.135Z,9.36
2018-12-30T12:43:21.107Z,9.13
2018-12-30T12:44:21.079Z,9.22
2018-12-30T12:45:21.072Z,9.13
2018-12-30T12:46:20.995Z,9.19
2018-12-30T12:47:20.954Z,9.31
2018-12-30T12:48:20.924Z,9.28
2018-12-30T12:49:21.095Z,9.31
2018-12-30T12:50:20.856Z,9.22
2018-12-30T12:51:20.810Z,9.13
2018-12-30T12:52:20.776Z,9.14
2018-12-30T12:53:20.755Z,9.19
2018-12-30T12:54:20.706Z,9.14
2018-12-30T12:55:20.720Z,9.28
2018-12-30T12:56:20.638Z,9.34
2018-12-30T12:57:20.610Z,9.28
2018-12-30T12:58:20.574Z,9.13
2018-12-30T12:59:20.536Z,9.16
2018-12-30T13:00:20.505Z,9.19
2018-12-30T13:01:20.471Z,9.11
2018-12-30T13:02:20.416Z,9.18
2018-12-30T13:03:20.399Z,9.22
2018-12-30T13:04:20.355Z,9.08
2018-12-30T13:05:20.334Z,9.19
2018-12-30T13:06:20.299Z,9.29
2018-12-30T13:07:20.270Z,9.23
2018-12-30T13:08:20.226Z,9.28
2018-12-30T13:09:20.181Z,9.25
2018-12-30T13:10:20.160Z,9.29
2018-12-30T13:11:20.114Z,9.32
2018-12-30T13:12:20.081Z,9.31
2018-12-30T13:13:20.050Z,9.29
2018-12-30T13:14:20.020Z,9.40
2018-12-30T13:15:19.977Z,9.28
2018-12-30T13:16:19.946Z,9.29
2018-12-30T13:17:19.907Z,9.25
2018-12-30T13:18:19.875Z,9.25